sensor_id;sensor_type;location;lat;lon;timestamp;P1;durP1;ratioP1;P2;durP2;ratioP2
15307;SDS011;7755;52.208;6.964;2023-07-28T00:02:39;11.27;;;9.27;;
15307;SDS011;7755;52.208;6.964;2023-07-28T00:06:44;11.10;;;9.33;;
15307;SDS011;7755;52.208;6.964;2023-07-28T00:10:47;12.20;;;10.00;;
15307;SDS011;7755;52.208;6.964;2023-07-28T00:14:50;11.77;;;9.97;;
15307;SDS011;7755;52.208;6.964;2023-07-28T00:18:53;11.87;;;10.50;;
15307;SDS011;7755;52.208;6.964;2023-07-28T00:22:57;11.17;;;9.57;;
15307;SDS011;7755;52.208;6.964;2023-07-28T00:27:00;11.37;;;10.17;;
15307;SDS011;7755;52.208;6.964;2023-07-28T00:31:03;15.70;;;11.43;;
15307;SDS011;7755;52.208;6.964;2023-07-28T00:35:07;11.37;;;10.17;;
15307;SDS011;7755;52.208;6.964;2023-07-28T00:39:11;13.33;;;10.33;;
15307;SDS011;7755;52.208;6.964;2023-07-28T00:43:14;13.30;;;10.70;;
15307;SDS011;7755;52.208;6.964;2023-07-28T00:47:17;14.57;;;10.87;;
15307;SDS011;7755;52.208;6.964;2023-07-28T00:51:20;11.27;;;10.17;;
15307;SDS011;7755;52.208;6.964;2023-07-28T00:55:25;14.20;;;11.63;;
15307;SDS011;7755;52.208;6.964;2023-07-28T00:59:28;13.73;;;10.77;;
15307;SDS011;7755;52.208;6.964;2023-07-28T01:03:32;13.23;;;11.23;;
15307;SDS011;7755;52.208;6.964;2023-07-28T01:07:36;11.73;;;9.97;;
15307;SDS011;7755;52.208;6.964;2023-07-28T01:11:56;13.33;;;10.50;;
15307;SDS011;7755;52.208;6.964;2023-07-28T01:16:00;12.00;;;10.20;;
15307;SDS011;7755;52.208;6.964;2023-07-28T01:20:04;11.47;;;10.27;;
15307;SDS011;7755;52.208;6.964;2023-07-28T01:24:12;12.57;;;10.80;;
15307;SDS011;7755;52.208;6.964;2023-07-28T01:28:25;13.43;;;11.17;;
15307;SDS011;7755;52.208;6.964;2023-07-28T01:32:29;12.33;;;10.33;;
15307;SDS011;7755;52.208;6.964;2023-07-28T01:36:32;12.70;;;10.73;;
15307;SDS011;7755;52.208;6.964;2023-07-28T01:40:36;13.90;;;11.63;;
15307;SDS011;7755;52.208;6.964;2023-07-28T01:44:40;16.97;;;12.20;;
15307;SDS011;7755;52.208;6.964;2023-07-28T01:48:44;15.17;;;12.47;;
15307;SDS011;7755;52.208;6.964;2023-07-28T01:52:47;11.33;;;10.13;;
15307;SDS011;7755;52.208;6.964;2023-07-28T01:56:50;15.10;;;12.63;;
15307;SDS011;7755;52.208;6.964;2023-07-28T02:00:54;13.07;;;11.53;;
15307;SDS011;7755;52.208;6.964;2023-07-28T02:04:58;14.30;;;12.23;;
15307;SDS011;7755;52.208;6.964;2023-07-28T02:09:01;15.37;;;12.33;;
15307;SDS011;7755;52.208;6.964;2023-07-28T02:13:04;12.70;;;11.10;;
15307;SDS011;7755;52.208;6.964;2023-07-28T02:17:08;13.73;;;11.97;;
15307;SDS011;7755;52.208;6.964;2023-07-28T02:21:11;15.70;;;11.33;;
15307;SDS011;7755;52.208;6.964;2023-07-28T02:25:14;14.97;;;12.20;;
15307;SDS011;7755;52.208;6.964;2023-07-28T02:29:18;14.40;;;11.87;;
15307;SDS011;7755;52.208;6.964;2023-07-28T02:33:23;13.60;;;11.20;;
15307;SDS011;7755;52.208;6.964;2023-07-28T02:37:26;14.87;;;11.90;;
15307;SDS011;7755;52.208;6.964;2023-07-28T02:41:29;14.30;;;12.80;;
15307;SDS011;7755;52.208;6.964;2023-07-28T02:45:32;17.47;;;12.53;;
15307;SDS011;7755;52.208;6.964;2023-07-28T02:49:37;13.80;;;12.00;;
15307;SDS011;7755;52.208;6.964;2023-07-28T02:53:40;16.27;;;12.03;;
15307;SDS011;7755;52.208;6.964;2023-07-28T02:57:42;15.93;;;12.80;;
15307;SDS011;7755;52.208;6.964;2023-07-28T03:01:46;13.97;;;10.80;;
15307;SDS011;7755;52.208;6.964;2023-07-28T03:05:52;12.50;;;10.73;;
15307;SDS011;7755;52.208;6.964;2023-07-28T03:09:59;11.87;;;9.47;;
15307;SDS011;7755;52.208;6.964;2023-07-28T03:14:04;11.00;;;9.50;;
15307;SDS011;7755;52.208;6.964;2023-07-28T03:18:07;10.93;;;9.73;;
15307;SDS011;7755;52.208;6.964;2023-07-28T03:22:11;15.13;;;11.47;;
15307;SDS011;7755;52.208;6.964;2023-07-28T03:26:14;12.93;;;10.40;;
15307;SDS011;7755;52.208;6.964;2023-07-28T03:30:17;15.80;;;12.43;;
15307;SDS011;7755;52.208;6.964;2023-07-28T03:34:20;12.23;;;10.53;;
15307;SDS011;7755;52.208;6.964;2023-07-28T03:38:26;17.17;;;11.90;;
15307;SDS011;7755;52.208;6.964;2023-07-28T03:42:28;16.97;;;12.60;;
15307;SDS011;7755;52.208;6.964;2023-07-28T03:46:31;13.73;;;12.27;;
15307;SDS011;7755;52.208;6.964;2023-07-28T03:50:35;13.00;;;11.50;;
15307;SDS011;7755;52.208;6.964;2023-07-28T03:54:39;14.10;;;11.60;;
15307;SDS011;7755;52.208;6.964;2023-07-28T03:58:42;14.37;;;11.77;;
15307;SDS011;7755;52.208;6.964;2023-07-28T04:02:45;11.83;;;10.50;;
15307;SDS011;7755;52.208;6.964;2023-07-28T04:06:48;19.17;;;12.97;;
15307;SDS011;7755;52.208;6.964;2023-07-28T04:10:53;17.73;;;13.63;;
15307;SDS011;7755;52.208;6.964;2023-07-28T04:14:56;14.93;;;12.30;;
15307;SDS011;7755;52.208;6.964;2023-07-28T04:18:59;15.17;;;12.73;;
15307;SDS011;7755;52.208;6.964;2023-07-28T04:23:03;15.77;;;12.63;;
15307;SDS011;7755;52.208;6.964;2023-07-28T04:27:12;16.03;;;11.57;;
15307;SDS011;7755;52.208;6.964;2023-07-28T04:31:14;18.90;;;12.93;;
15307;SDS011;7755;52.208;6.964;2023-07-28T04:35:29;17.17;;;12.57;;
15307;SDS011;7755;52.208;6.964;2023-07-28T04:39:40;14.03;;;11.53;;
15307;SDS011;7755;52.208;6.964;2023-07-28T04:43:46;17.30;;;13.50;;
15307;SDS011;7755;52.208;6.964;2023-07-28T04:47:49;19.50;;;13.87;;
15307;SDS011;7755;52.208;6.964;2023-07-28T04:56:39;18.97;;;15.47;;
15307;SDS011;7755;52.208;6.964;2023-07-28T05:00:44;20.33;;;15.07;;
15307;SDS011;7755;52.208;6.964;2023-07-28T05:04:48;19.30;;;14.90;;
15307;SDS011;7755;52.208;6.964;2023-07-28T05:08:53;20.53;;;15.60;;
15307;SDS011;7755;52.208;6.964;2023-07-28T05:13:07;17.70;;;14.27;;
15307;SDS011;7755;52.208;6.964;2023-07-28T05:17:12;19.83;;;14.17;;
15307;SDS011;7755;52.208;6.964;2023-07-28T05:21:36;19.10;;;14.53;;
15307;SDS011;7755;52.208;6.964;2023-07-28T05:25:39;18.47;;;14.57;;
15307;SDS011;7755;52.208;6.964;2023-07-28T05:29:42;17.03;;;14.57;;
15307;SDS011;7755;52.208;6.964;2023-07-28T05:33:47;20.20;;;15.40;;
15307;SDS011;7755;52.208;6.964;2023-07-28T05:37:52;19.40;;;15.13;;
15307;SDS011;7755;52.208;6.964;2023-07-28T05:41:56;19.73;;;15.27;;
15307;SDS011;7755;52.208;6.964;2023-07-28T05:45:59;29.10;;;17.87;;
15307;SDS011;7755;52.208;6.964;2023-07-28T05:50:09;21.03;;;16.33;;
15307;SDS011;7755;52.208;6.964;2023-07-28T05:54:12;21.30;;;15.07;;
15307;SDS011;7755;52.208;6.964;2023-07-28T05:58:16;24.60;;;17.30;;
15307;SDS011;7755;52.208;6.964;2023-07-28T06:02:19;22.57;;;15.30;;
15307;SDS011;7755;52.208;6.964;2023-07-28T06:06:32;20.87;;;15.83;;
15307;SDS011;7755;52.208;6.964;2023-07-28T06:10:36;22.73;;;15.47;;
15307;SDS011;7755;52.208;6.964;2023-07-28T06:14:40;21.37;;;15.07;;
15307;SDS011;7755;52.208;6.964;2023-07-28T06:18:45;22.33;;;15.87;;
15307;SDS011;7755;52.208;6.964;2023-07-28T06:22:53;18.87;;;14.90;;
15307;SDS011;7755;52.208;6.964;2023-07-28T06:26:58;20.07;;;15.97;;
15307;SDS011;7755;52.208;6.964;2023-07-28T06:31:01;19.60;;;14.70;;
15307;SDS011;7755;52.208;6.964;2023-07-28T06:35:05;20.67;;;15.03;;
15307;SDS011;7755;52.208;6.964;2023-07-28T06:39:12;18.80;;;14.73;;
15307;SDS011;7755;52.208;6.964;2023-07-28T06:43:15;20.57;;;14.97;;
15307;SDS011;7755;52.208;6.964;2023-07-28T06:47:21;18.20;;;14.30;;
15307;SDS011;7755;52.208;6.964;2023-07-28T06:51:25;18.47;;;13.80;;
15307;SDS011;7755;52.208;6.964;2023-07-28T06:55:29;19.43;;;15.07;;
15307;SDS011;7755;52.208;6.964;2023-07-28T06:59:34;19.77;;;15.07;;
15307;SDS011;7755;52.208;6.964;2023-07-28T07:03:37;23.30;;;15.73;;
15307;SDS011;7755;52.208;6.964;2023-07-28T07:07:40;19.93;;;13.93;;
15307;SDS011;7755;52.208;6.964;2023-07-28T07:11:46;19.83;;;14.97;;
15307;SDS011;7755;52.208;6.964;2023-07-28T07:15:50;17.27;;;14.10;;
15307;SDS011;7755;52.208;6.964;2023-07-28T07:19:53;17.13;;;13.20;;
15307;SDS011;7755;52.208;6.964;2023-07-28T07:24:06;17.63;;;12.97;;
15307;SDS011;7755;52.208;6.964;2023-07-28T07:28:11;16.00;;;11.70;;
15307;SDS011;7755;52.208;6.964;2023-07-28T07:32:14;13.53;;;11.23;;
15307;SDS011;7755;52.208;6.964;2023-07-28T07:36:18;10.83;;;9.27;;
15307;SDS011;7755;52.208;6.964;2023-07-28T07:40:22;10.87;;;9.27;;
15307;SDS011;7755;52.208;6.964;2023-07-28T07:44:31;8.63;;;7.70;;
15307;SDS011;7755;52.208;6.964;2023-07-28T07:48:34;9.07;;;7.70;;
15307;SDS011;7755;52.208;6.964;2023-07-28T07:52:38;10.07;;;8.27;;
15307;SDS011;7755;52.208;6.964;2023-07-28T07:56:43;8.13;;;6.73;;
15307;SDS011;7755;52.208;6.964;2023-07-28T08:00:48;12.90;;;8.93;;
15307;SDS011;7755;52.208;6.964;2023-07-28T08:04:51;14.20;;;10.10;;
15307;SDS011;7755;52.208;6.964;2023-07-28T08:08:55;17.37;;;11.47;;
15307;SDS011;7755;52.208;6.964;2023-07-28T08:13:01;14.70;;;11.23;;
15307;SDS011;7755;52.208;6.964;2023-07-28T08:17:07;16.53;;;12.57;;
15307;SDS011;7755;52.208;6.964;2023-07-28T08:21:10;15.67;;;12.67;;
15307;SDS011;7755;52.208;6.964;2023-07-28T08:25:13;17.10;;;13.07;;
15307;SDS011;7755;52.208;6.964;2023-07-28T08:29:16;20.60;;;15.33;;
15307;SDS011;7755;52.208;6.964;2023-07-28T08:33:20;18.97;;;13.97;;
15307;SDS011;7755;52.208;6.964;2023-07-28T08:37:23;24.27;;;16.10;;
15307;SDS011;7755;52.208;6.964;2023-07-28T08:41:26;21.57;;;15.33;;
15307;SDS011;7755;52.208;6.964;2023-07-28T08:45:30;21.30;;;16.27;;
15307;SDS011;7755;52.208;6.964;2023-07-28T08:49:35;21.87;;;16.23;;
15307;SDS011;7755;52.208;6.964;2023-07-28T08:53:38;20.07;;;16.63;;
15307;SDS011;7755;52.208;6.964;2023-07-28T08:57:41;22.10;;;15.63;;
15307;SDS011;7755;52.208;6.964;2023-07-28T09:01:44;21.23;;;15.10;;
15307;SDS011;7755;52.208;6.964;2023-07-28T09:05:49;20.50;;;15.33;;
15307;SDS011;7755;52.208;6.964;2023-07-28T09:09:58;19.30;;;15.37;;
15307;SDS011;7755;52.208;6.964;2023-07-28T09:14:02;18.17;;;14.73;;
15307;SDS011;7755;52.208;6.964;2023-07-28T09:18:07;19.70;;;15.13;;
15307;SDS011;7755;52.208;6.964;2023-07-28T09:22:13;23.10;;;17.20;;
15307;SDS011;7755;52.208;6.964;2023-07-28T09:26:16;19.83;;;16.73;;
15307;SDS011;7755;52.208;6.964;2023-07-28T09:30:19;19.03;;;16.07;;
15307;SDS011;7755;52.208;6.964;2023-07-28T09:34:24;24.27;;;16.37;;
15307;SDS011;7755;52.208;6.964;2023-07-28T09:38:30;21.53;;;16.93;;
15307;SDS011;7755;52.208;6.964;2023-07-28T09:42:34;23.10;;;16.53;;
15307;SDS011;7755;52.208;6.964;2023-07-28T09:46:41;23.90;;;16.67;;
15307;SDS011;7755;52.208;6.964;2023-07-28T09:50:51;16.80;;;14.23;;
15307;SDS011;7755;52.208;6.964;2023-07-28T09:54:56;20.00;;;14.80;;
15307;SDS011;7755;52.208;6.964;2023-07-28T09:59:01;16.30;;;13.17;;
15307;SDS011;7755;52.208;6.964;2023-07-28T10:03:08;17.30;;;14.20;;
15307;SDS011;7755;52.208;6.964;2023-07-28T10:07:12;22.00;;;15.73;;
15307;SDS011;7755;52.208;6.964;2023-07-28T10:11:17;17.87;;;14.57;;
15307;SDS011;7755;52.208;6.964;2023-07-28T10:15:22;16.67;;;12.90;;
15307;SDS011;7755;52.208;6.964;2023-07-28T10:19:33;17.77;;;13.60;;
15307;SDS011;7755;52.208;6.964;2023-07-28T10:23:36;18.67;;;14.93;;
15307;SDS011;7755;52.208;6.964;2023-07-28T10:27:45;20.03;;;14.63;;
15307;SDS011;7755;52.208;6.964;2023-07-28T10:31:49;16.63;;;12.77;;
15307;SDS011;7755;52.208;6.964;2023-07-28T10:35:53;13.60;;;11.87;;
15307;SDS011;7755;52.208;6.964;2023-07-28T10:44:32;16.57;;;12.60;;
15307;SDS011;7755;52.208;6.964;2023-07-28T10:48:36;16.53;;;13.10;;
15307;SDS011;7755;52.208;6.964;2023-07-28T10:52:41;14.20;;;12.57;;
15307;SDS011;7755;52.208;6.964;2023-07-28T10:56:44;16.77;;;12.53;;
15307;SDS011;7755;52.208;6.964;2023-07-28T11:00:48;13.47;;;12.07;;
15307;SDS011;7755;52.208;6.964;2023-07-28T11:04:53;15.10;;;12.43;;
15307;SDS011;7755;52.208;6.964;2023-07-28T11:08:56;14.17;;;11.77;;
15307;SDS011;7755;52.208;6.964;2023-07-28T11:13:00;15.10;;;11.87;;
15307;SDS011;7755;52.208;6.964;2023-07-28T11:17:22;14.27;;;11.50;;
15307;SDS011;7755;52.208;6.964;2023-07-28T11:21:28;14.00;;;12.40;;
15307;SDS011;7755;52.208;6.964;2023-07-28T11:25:31;14.83;;;11.63;;
15307;SDS011;7755;52.208;6.964;2023-07-28T11:29:37;13.47;;;11.17;;
15307;SDS011;7755;52.208;6.964;2023-07-28T11:33:42;15.50;;;11.73;;
15307;SDS011;7755;52.208;6.964;2023-07-28T11:37:46;12.00;;;10.70;;
15307;SDS011;7755;52.208;6.964;2023-07-28T11:41:51;12.00;;;10.77;;
15307;SDS011;7755;52.208;6.964;2023-07-28T11:45:56;12.00;;;10.47;;
15307;SDS011;7755;52.208;6.964;2023-07-28T11:50:01;12.63;;;10.37;;
15307;SDS011;7755;52.208;6.964;2023-07-28T11:54:05;10.47;;;9.53;;
15307;SDS011;7755;52.208;6.964;2023-07-28T11:58:08;10.50;;;9.47;;
15307;SDS011;7755;52.208;6.964;2023-07-28T12:02:12;12.77;;;9.57;;
15307;SDS011;7755;52.208;6.964;2023-07-28T12:06:20;10.03;;;8.63;;
15307;SDS011;7755;52.208;6.964;2023-07-28T12:10:29;9.50;;;8.53;;
15307;SDS011;7755;52.208;6.964;2023-07-28T12:14:37;10.10;;;9.17;;
15307;SDS011;7755;52.208;6.964;2023-07-28T12:18:45;8.20;;;7.37;;
15307;SDS011;7755;52.208;6.964;2023-07-28T12:22:52;9.20;;;8.30;;
15307;SDS011;7755;52.208;6.964;2023-07-28T12:27:15;6.90;;;6.20;;
15307;SDS011;7755;52.208;6.964;2023-07-28T12:31:20;7.87;;;5.63;;
15307;SDS011;7755;52.208;6.964;2023-07-28T12:35:24;7.00;;;6.07;;
15307;SDS011;7755;52.208;6.964;2023-07-28T12:39:37;7.17;;;6.43;;
15307;SDS011;7755;52.208;6.964;2023-07-28T12:43:43;6.63;;;6.03;;
15307;SDS011;7755;52.208;6.964;2023-07-28T12:47:49;7.27;;;6.57;;
15307;SDS011;7755;52.208;6.964;2023-07-28T12:51:56;7.47;;;6.80;;
15307;SDS011;7755;52.208;6.964;2023-07-28T12:56:00;8.60;;;7.77;;
15307;SDS011;7755;52.208;6.964;2023-07-28T13:00:04;8.13;;;7.23;;
15307;SDS011;7755;52.208;6.964;2023-07-28T13:04:16;7.53;;;6.70;;
15307;SDS011;7755;52.208;6.964;2023-07-28T13:08:19;8.60;;;7.70;;
15307;SDS011;7755;52.208;6.964;2023-07-28T13:12:44;8.63;;;7.83;;
15307;SDS011;7755;52.208;6.964;2023-07-28T13:16:50;8.98;;;7.82;;
15307;SDS011;7755;52.208;6.964;2023-07-28T13:20:53;10.63;;;9.47;;
15307;SDS011;7755;52.208;6.964;2023-07-28T13:24:56;9.30;;;8.10;;
15307;SDS011;7755;52.208;6.964;2023-07-28T13:29:02;8.83;;;8.03;;
15307;SDS011;7755;52.208;6.964;2023-07-28T13:33:08;8.80;;;8.00;;
15307;SDS011;7755;52.208;6.964;2023-07-28T13:37:11;8.60;;;7.77;;
15307;SDS011;7755;52.208;6.964;2023-07-28T13:41:14;7.73;;;6.73;;
15307;SDS011;7755;52.208;6.964;2023-07-28T13:45:19;7.60;;;6.00;;
15307;SDS011;7755;52.208;6.964;2023-07-28T13:49:22;7.63;;;7.03;;
15307;SDS011;7755;52.208;6.964;2023-07-28T13:53:25;7.50;;;6.80;;
15307;SDS011;7755;52.208;6.964;2023-07-28T13:57:31;8.57;;;7.77;;
15307;SDS011;7755;52.208;6.964;2023-07-28T14:01:36;8.03;;;6.77;;
15307;SDS011;7755;52.208;6.964;2023-07-28T14:05:39;9.30;;;8.32;;
15307;SDS011;7755;52.208;6.964;2023-07-28T14:09:42;7.23;;;6.63;;
15307;SDS011;7755;52.208;6.964;2023-07-28T14:13:45;7.03;;;6.40;;
15307;SDS011;7755;52.208;6.964;2023-07-28T14:17:50;6.30;;;5.80;;
15307;SDS011;7755;52.208;6.964;2023-07-28T14:21:53;6.20;;;5.60;;
15307;SDS011;7755;52.208;6.964;2023-07-28T14:25:56;5.88;;;5.38;;
15307;SDS011;7755;52.208;6.964;2023-07-28T14:30:00;4.90;;;4.50;;
15307;SDS011;7755;52.208;6.964;2023-07-28T14:34:05;4.80;;;4.40;;
15307;SDS011;7755;52.208;6.964;2023-07-28T14:38:08;4.77;;;4.37;;
15307;SDS011;7755;52.208;6.964;2023-07-28T14:42:11;4.18;;;3.88;;
15307;SDS011;7755;52.208;6.964;2023-07-28T14:46:14;5.03;;;4.63;;
15307;SDS011;7755;52.208;6.964;2023-07-28T14:50:19;7.33;;;6.73;;
15307;SDS011;7755;52.208;6.964;2023-07-28T14:54:24;7.10;;;6.50;;
15307;SDS011;7755;52.208;6.964;2023-07-28T14:58:27;6.88;;;6.28;;
15307;SDS011;7755;52.208;6.964;2023-07-28T15:02:31;7.05;;;6.45;;
15307;SDS011;7755;52.208;6.964;2023-07-28T15:06:36;6.73;;;6.03;;
15307;SDS011;7755;52.208;6.964;2023-07-28T15:10:39;6.30;;;5.72;;
15307;SDS011;7755;52.208;6.964;2023-07-28T15:14:42;6.60;;;6.00;;
15307;SDS011;7755;52.208;6.964;2023-07-28T15:18:45;7.20;;;6.60;;
15307;SDS011;7755;52.208;6.964;2023-07-28T15:22:50;6.77;;;6.23;;
15307;SDS011;7755;52.208;6.964;2023-07-28T15:26:54;6.93;;;6.23;;
15307;SDS011;7755;52.208;6.964;2023-07-28T15:30:57;6.33;;;5.73;;
15307;SDS011;7755;52.208;6.964;2023-07-28T15:35:00;5.60;;;5.17;;
15307;SDS011;7755;52.208;6.964;2023-07-28T15:39:05;6.00;;;5.50;;
15307;SDS011;7755;52.208;6.964;2023-07-28T15:43:10;4.60;;;4.20;;
15307;SDS011;7755;52.208;6.964;2023-07-28T15:47:13;5.38;;;4.97;;
15307;SDS011;7755;52.208;6.964;2023-07-28T15:51:16;4.53;;;4.22;;
15307;SDS011;7755;52.208;6.964;2023-07-28T15:55:20;4.78;;;4.38;;
15307;SDS011;7755;52.208;6.964;2023-07-28T15:59:23;4.97;;;4.47;;
15307;SDS011;7755;52.208;6.964;2023-07-28T16:03:26;5.07;;;4.67;;
15307;SDS011;7755;52.208;6.964;2023-07-28T16:07:29;4.77;;;4.33;;
15307;SDS011;7755;52.208;6.964;2023-07-28T16:11:35;4.70;;;4.30;;
15307;SDS011;7755;52.208;6.964;2023-07-28T16:15:39;4.07;;;3.77;;
15307;SDS011;7755;52.208;6.964;2023-07-28T16:19:42;4.17;;;3.87;;
15307;SDS011;7755;52.208;6.964;2023-07-28T16:23:46;4.20;;;3.90;;
15307;SDS011;7755;52.208;6.964;2023-07-28T16:27:50;4.40;;;4.10;;
15307;SDS011;7755;52.208;6.964;2023-07-28T16:31:54;4.10;;;3.80;;
15307;SDS011;7755;52.208;6.964;2023-07-28T16:36:00;4.57;;;4.23;;
15307;SDS011;7755;52.208;6.964;2023-07-28T16:40:06;4.63;;;4.23;;
15307;SDS011;7755;52.208;6.964;2023-07-28T16:44:11;4.00;;;3.70;;
15307;SDS011;7755;52.208;6.964;2023-07-28T16:48:14;4.37;;;4.03;;
15307;SDS011;7755;52.208;6.964;2023-07-28T16:52:18;4.30;;;4.00;;
15307;SDS011;7755;52.208;6.964;2023-07-28T16:56:23;5.00;;;4.60;;
15307;SDS011;7755;52.208;6.964;2023-07-28T17:00:27;4.57;;;4.17;;
15307;SDS011;7755;52.208;6.964;2023-07-28T17:04:30;5.17;;;4.77;;
15307;SDS011;7755;52.208;6.964;2023-07-28T17:08:33;5.90;;;5.40;;
15307;SDS011;7755;52.208;6.964;2023-07-28T17:12:36;5.67;;;5.20;;
15307;SDS011;7755;52.208;6.964;2023-07-28T17:16:40;7.03;;;6.33;;
15307;SDS011;7755;52.208;6.964;2023-07-28T17:20:43;6.80;;;6.20;;
15307;SDS011;7755;52.208;6.964;2023-07-28T17:24:46;7.60;;;6.93;;
15307;SDS011;7755;52.208;6.964;2023-07-28T17:28:51;7.90;;;7.20;;
15307;SDS011;7755;52.208;6.964;2023-07-28T17:32:55;8.17;;;7.50;;
15307;SDS011;7755;52.208;6.964;2023-07-28T17:36:58;9.47;;;8.17;;
15307;SDS011;7755;52.208;6.964;2023-07-28T17:41:01;7.33;;;6.63;;
15307;SDS011;7755;52.208;6.964;2023-07-28T17:45:04;8.37;;;7.67;;
15307;SDS011;7755;52.208;6.964;2023-07-28T17:49:10;8.60;;;7.87;;
15307;SDS011;7755;52.208;6.964;2023-07-28T17:53:13;7.63;;;6.93;;
15307;SDS011;7755;52.208;6.964;2023-07-28T17:57:16;9.80;;;8.83;;
15307;SDS011;7755;52.208;6.964;2023-07-28T18:01:19;8.20;;;7.50;;
15307;SDS011;7755;52.208;6.964;2023-07-28T18:05:23;9.43;;;8.53;;
15307;SDS011;7755;52.208;6.964;2023-07-28T18:09:26;8.43;;;7.63;;
15307;SDS011;7755;52.208;6.964;2023-07-28T18:13:29;7.90;;;7.30;;
15307;SDS011;7755;52.208;6.964;2023-07-28T18:17:32;9.13;;;8.20;;
15307;SDS011;7755;52.208;6.964;2023-07-28T18:21:36;8.93;;;8.13;;
15307;SDS011;7755;52.208;6.964;2023-07-28T18:25:39;9.50;;;8.63;;
15307;SDS011;7755;52.208;6.964;2023-07-28T18:29:42;9.57;;;8.67;;
15307;SDS011;7755;52.208;6.964;2023-07-28T18:33:45;10.60;;;9.33;;
15307;SDS011;7755;52.208;6.964;2023-07-28T18:37:49;10.47;;;9.50;;
15307;SDS011;7755;52.208;6.964;2023-07-28T18:41:52;9.93;;;9.03;;
15307;SDS011;7755;52.208;6.964;2023-07-28T18:45:55;10.13;;;9.23;;
15307;SDS011;7755;52.208;6.964;2023-07-28T18:49:57;11.47;;;10.30;;
15307;SDS011;7755;52.208;6.964;2023-07-28T18:54:02;9.30;;;8.40;;
15307;SDS011;7755;52.208;6.964;2023-07-28T18:58:05;10.67;;;9.67;;
15307;SDS011;7755;52.208;6.964;2023-07-28T19:02:08;9.27;;;8.47;;
15307;SDS011;7755;52.208;6.964;2023-07-28T19:06:11;11.33;;;10.00;;
15307;SDS011;7755;52.208;6.964;2023-07-28T19:10:17;9.23;;;8.43;;
15307;SDS011;7755;52.208;6.964;2023-07-28T19:14:20;10.23;;;9.27;;
15307;SDS011;7755;52.208;6.964;2023-07-28T19:18:23;10.77;;;9.67;;
15307;SDS011;7755;52.208;6.964;2023-07-28T19:22:26;11.60;;;10.50;;
15307;SDS011;7755;52.208;6.964;2023-07-28T19:26:31;10.37;;;9.37;;
15307;SDS011;7755;52.208;6.964;2023-07-28T19:30:34;12.23;;;11.07;;
15307;SDS011;7755;52.208;6.964;2023-07-28T19:34:37;11.37;;;10.17;;
15307;SDS011;7755;52.208;6.964;2023-07-28T19:38:40;9.50;;;8.60;;
15307;SDS011;7755;52.208;6.964;2023-07-28T19:42:44;10.63;;;9.63;;
15307;SDS011;7755;52.208;6.964;2023-07-28T19:46:48;12.20;;;11.10;;
15307;SDS011;7755;52.208;6.964;2023-07-28T19:50:51;9.93;;;9.00;;
15307;SDS011;7755;52.208;6.964;2023-07-28T19:54:53;11.47;;;10.30;;
15307;SDS011;7755;52.208;6.964;2023-07-28T19:58:58;10.70;;;9.60;;
15307;SDS011;7755;52.208;6.964;2023-07-28T20:03:01;10.70;;;9.70;;
15307;SDS011;7755;52.208;6.964;2023-07-28T20:07:04;9.93;;;9.03;;
15307;SDS011;7755;52.208;6.964;2023-07-28T20:11:09;10.60;;;9.70;;
15307;SDS011;7755;52.208;6.964;2023-07-28T20:15:13;10.57;;;9.57;;
15307;SDS011;7755;52.208;6.964;2023-07-28T20:19:16;8.63;;;7.77;;
15307;SDS011;7755;52.208;6.964;2023-07-28T20:23:19;7.63;;;6.93;;
15307;SDS011;7755;52.208;6.964;2023-07-28T20:27:22;6.77;;;6.17;;
15307;SDS011;7755;52.208;6.964;2023-07-28T20:31:27;7.10;;;6.50;;
15307;SDS011;7755;52.208;6.964;2023-07-28T20:35:30;7.30;;;6.30;;
15307;SDS011;7755;52.208;6.964;2023-07-28T20:39:34;8.27;;;6.83;;
15307;SDS011;7755;52.208;6.964;2023-07-28T20:43:37;7.80;;;7.10;;
15307;SDS011;7755;52.208;6.964;2023-07-28T20:47:41;7.07;;;6.40;;
15307;SDS011;7755;52.208;6.964;2023-07-28T20:51:44;8.73;;;7.83;;
15307;SDS011;7755;52.208;6.964;2023-07-28T20:55:47;9.00;;;8.20;;
15307;SDS011;7755;52.208;6.964;2023-07-28T20:59:51;8.83;;;8.10;;
15307;SDS011;7755;52.208;6.964;2023-07-28T21:03:55;8.00;;;7.33;;
15307;SDS011;7755;52.208;6.964;2023-07-28T21:07:59;9.70;;;8.70;;
15307;SDS011;7755;52.208;6.964;2023-07-28T21:12:02;9.93;;;8.47;;
15307;SDS011;7755;52.208;6.964;2023-07-28T21:16:05;9.00;;;8.20;;
15307;SDS011;7755;52.208;6.964;2023-07-28T21:20:10;9.37;;;8.47;;
15307;SDS011;7755;52.208;6.964;2023-07-28T21:24:14;9.07;;;8.27;;
15307;SDS011;7755;52.208;6.964;2023-07-28T21:28:16;14.47;;;10.67;;
15307;SDS011;7755;52.208;6.964;2023-07-28T21:32:19;10.57;;;9.67;;
15307;SDS011;7755;52.208;6.964;2023-07-28T21:36:24;10.80;;;9.77;;
15307;SDS011;7755;52.208;6.964;2023-07-28T21:40:27;10.37;;;9.33;;
15307;SDS011;7755;52.208;6.964;2023-07-28T21:44:30;12.07;;;10.97;;
15307;SDS011;7755;52.208;6.964;2023-07-28T21:48:33;10.27;;;9.37;;
15307;SDS011;7755;52.208;6.964;2023-07-28T21:52:37;10.33;;;9.33;;
15307;SDS011;7755;52.208;6.964;2023-07-28T21:56:40;10.73;;;9.73;;
15307;SDS011;7755;52.208;6.964;2023-07-28T22:00:43;10.80;;;9.73;;
15307;SDS011;7755;52.208;6.964;2023-07-28T22:04:46;10.07;;;9.07;;
15307;SDS011;7755;52.208;6.964;2023-07-28T22:08:50;9.07;;;8.27;;
15307;SDS011;7755;52.208;6.964;2023-07-28T22:12:53;9.83;;;8.67;;
15307;SDS011;7755;52.208;6.964;2023-07-28T22:16:56;8.87;;;8.07;;
15307;SDS011;7755;52.208;6.964;2023-07-28T22:20:59;8.27;;;7.57;;
15307;SDS011;7755;52.208;6.964;2023-07-28T22:25:04;8.10;;;7.40;;
15307;SDS011;7755;52.208;6.964;2023-07-28T22:29:07;8.70;;;7.90;;
15307;SDS011;7755;52.208;6.964;2023-07-28T22:33:10;9.40;;;8.50;;
15307;SDS011;7755;52.208;6.964;2023-07-28T22:37:14;8.50;;;7.70;;
15307;SDS011;7755;52.208;6.964;2023-07-28T22:41:19;8.43;;;7.73;;
15307;SDS011;7755;52.208;6.964;2023-07-28T22:45:21;8.80;;;7.90;;
15307;SDS011;7755;52.208;6.964;2023-07-28T22:49:26;9.50;;;8.63;;
15307;SDS011;7755;52.208;6.964;2023-07-28T22:53:29;8.47;;;7.67;;
15307;SDS011;7755;52.208;6.964;2023-07-28T22:57:33;7.83;;;7.03;;
15307;SDS011;7755;52.208;6.964;2023-07-28T23:01:36;8.87;;;7.97;;
15307;SDS011;7755;52.208;6.964;2023-07-28T23:05:39;9.00;;;8.20;;
15307;SDS011;7755;52.208;6.964;2023-07-28T23:09:42;10.27;;;9.27;;
15307;SDS011;7755;52.208;6.964;2023-07-28T23:13:47;10.50;;;8.00;;
15307;SDS011;7755;52.208;6.964;2023-07-28T23:17:50;8.93;;;8.10;;
15307;SDS011;7755;52.208;6.964;2023-07-28T23:21:53;10.07;;;8.87;;
15307;SDS011;7755;52.208;6.964;2023-07-28T23:25:56;9.03;;;8.17;;
15307;SDS011;7755;52.208;6.964;2023-07-28T23:30:00;8.67;;;7.87;;
15307;SDS011;7755;52.208;6.964;2023-07-28T23:34:03;8.80;;;7.97;;
15307;SDS011;7755;52.208;6.964;2023-07-28T23:38:06;7.07;;;6.43;;
15307;SDS011;7755;52.208;6.964;2023-07-28T23:42:09;8.53;;;7.73;;
15307;SDS011;7755;52.208;6.964;2023-07-28T23:46:14;8.20;;;7.40;;
15307;SDS011;7755;52.208;6.964;2023-07-28T23:50:17;7.63;;;6.93;;
15307;SDS011;7755;52.208;6.964;2023-07-28T23:54:20;6.93;;;6.33;;
15307;SDS011;7755;52.208;6.964;2023-07-28T23:58:23;6.90;;;6.20;;
